createdAt,value
2018-10-09T00:02:03.939Z,17.60
2018-10-09T00:04:33.163Z,18.67
2018-10-09T00:07:02.387Z,19.47
2018-10-09T00:09:31.579Z,18.33
2018-10-09T00:12:00.822Z,21.30
2018-10-09T00:14:30.058Z,19.50
2018-10-09T00:16:59.368Z,22.50
2018-10-09T00:19:28.555Z,22.93
2018-10-09T00:21:57.836Z,21.40
2018-10-09T00:24:27.046Z,21.87
2018-10-09T00:26:59.027Z,19.13
2018-10-09T00:29:28.217Z,19.97
2018-10-09T00:31:57.445Z,19.60
2018-10-09T00:34:26.651Z,19.73
2018-10-09T00:36:56.018Z,20.23
2018-10-09T00:39:25.229Z,18.90
2018-10-09T00:41:54.459Z,18.90
2018-10-09T00:44:23.655Z,18.60
2018-10-09T00:46:52.899Z,17.87
2018-10-09T00:49:22.124Z,19.60
2018-10-09T00:51:51.441Z,20.57
2018-10-09T00:54:20.675Z,18.73
2018-10-09T00:56:49.910Z,19.40
2018-10-09T00:59:19.223Z,19.70
2018-10-09T01:01:48.663Z,20.37
2018-10-09T01:04:18.296Z,19.07
2018-10-09T01:06:47.508Z,17.75
2018-10-09T01:09:17.015Z,18.63
2018-10-09T01:11:46.214Z,18.60
2018-10-09T01:14:16.046Z,18.10
2018-10-09T01:16:45.350Z,19.83
2018-10-09T01:19:15.112Z,18.97
2018-10-09T01:21:44.354Z,18.27
2018-10-09T01:24:14.286Z,18.95
2018-10-09T01:26:43.466Z,19.73
2018-10-09T01:29:13.280Z,20.23
2018-10-09T01:31:42.577Z,19.37
2018-10-09T01:34:12.108Z,19.17
2018-10-09T01:36:41.294Z,19.63
2018-10-09T01:39:11.043Z,18.27
2018-10-09T01:41:40.284Z,21.00
2018-10-09T01:44:09.513Z,23.57
2018-10-09T01:46:38.764Z,24.07
2018-10-09T01:49:07.960Z,22.47
2018-10-09T01:51:37.231Z,23.93
2018-10-09T01:54:06.707Z,24.07
2018-10-09T01:56:36.296Z,21.63
2018-10-09T01:59:05.962Z,19.23
2018-10-09T02:01:35.251Z,19.65
2018-10-09T02:04:04.519Z,21.60
2018-10-09T02:06:33.760Z,21.37
2018-10-09T02:09:03.086Z,20.45
2018-10-09T02:11:32.318Z,19.97
2018-10-09T02:14:01.562Z,20.80
2018-10-09T02:16:30.779Z,19.70
2018-10-09T02:18:59.979Z,19.15
2018-10-09T02:21:32.067Z,20.00
2018-10-09T02:24:01.524Z,20.50
2018-10-09T02:26:30.713Z,22.23
2018-10-09T02:28:59.908Z,24.37
2018-10-09T02:31:29.152Z,22.75
2018-10-09T02:33:58.407Z,20.97
2018-10-09T02:36:27.610Z,22.27
2018-10-09T02:38:56.847Z,21.53
2018-10-09T02:41:26.140Z,21.80
2018-10-09T02:43:55.323Z,21.47
2018-10-09T02:46:24.493Z,20.80
2018-10-09T02:48:53.699Z,22.40
2018-10-09T02:51:22.933Z,21.37
2018-10-09T02:53:52.194Z,21.17
2018-10-09T02:56:21.375Z,21.60
2018-10-09T02:58:50.598Z,20.65
2018-10-09T03:01:19.864Z,20.80
2018-10-09T03:03:49.078Z,21.63
2018-10-09T03:06:18.379Z,22.40
2018-10-09T03:08:47.565Z,22.70
2018-10-09T03:11:17.268Z,21.50
2018-10-09T03:13:46.498Z,19.50
2018-10-09T03:16:16.448Z,19.73
2018-10-09T03:18:45.700Z,19.40
2018-10-09T03:21:15.493Z,21.93
2018-10-09T03:23:45.643Z,21.42
2018-10-09T03:26:15.213Z,19.40
2018-10-09T03:28:44.411Z,18.42
2018-10-09T03:31:14.727Z,21.48
2018-10-09T03:33:43.928Z,19.93
2018-10-09T03:36:13.364Z,20.57
2018-10-09T03:38:42.598Z,19.35
2018-10-09T03:41:11.936Z,21.50
2018-10-09T03:43:41.151Z,20.90
2018-10-09T03:46:10.352Z,20.83
2018-10-09T03:48:39.571Z,20.33
2018-10-09T03:51:08.791Z,20.63
2018-10-09T03:53:38.043Z,19.90
2018-10-09T03:56:07.322Z,20.03
2018-10-09T03:58:36.622Z,20.93
2018-10-09T04:01:05.979Z,22.73
2018-10-09T04:03:35.245Z,24.63
2018-10-09T04:06:04.458Z,22.03
2018-10-09T04:08:33.647Z,20.53
2018-10-09T04:11:03.226Z,21.13
2018-10-09T04:13:32.454Z,21.50
2018-10-09T04:16:01.643Z,21.47
2018-10-09T04:18:30.856Z,21.47
2018-10-09T04:21:00.074Z,22.67
2018-10-09T04:23:29.259Z,22.50
2018-10-09T04:25:58.589Z,21.97
2018-10-09T04:28:27.780Z,23.97
2018-10-09T04:30:58.049Z,24.03
2018-10-09T04:33:27.303Z,25.80
2018-10-09T04:35:56.445Z,26.43
2018-10-09T04:38:25.623Z,25.60
2018-10-09T04:40:55.182Z,25.37
2018-10-09T04:43:24.472Z,27.10
2018-10-09T04:45:53.748Z,24.23
2018-10-09T04:48:22.979Z,24.72
2018-10-09T04:50:52.361Z,23.63
2018-10-09T04:53:21.552Z,22.80
2018-10-09T04:55:50.759Z,23.97
2018-10-09T04:58:20.516Z,24.00
2018-10-09T05:00:49.825Z,21.90
2018-10-09T05:03:19.124Z,23.83
2018-10-09T05:05:48.255Z,21.60
2018-10-09T05:08:17.483Z,22.73
2018-10-09T05:10:46.727Z,23.20
2018-10-09T05:13:16.085Z,22.30
2018-10-09T05:15:45.263Z,22.40
2018-10-09T05:18:14.500Z,21.27
2018-10-09T05:20:43.718Z,21.80
2018-10-09T05:23:12.934Z,23.40
2018-10-09T05:25:42.094Z,22.67
2018-10-09T05:28:11.463Z,23.57
2018-10-09T05:30:40.747Z,25.60
2018-10-09T05:33:10.352Z,21.87
2018-10-09T05:35:39.557Z,22.15
2018-10-09T05:38:09.110Z,22.87
2018-10-09T05:40:38.371Z,24.63
2018-10-09T05:43:07.914Z,27.50
2018-10-09T05:45:39.409Z,26.20
2018-10-09T05:48:09.915Z,25.27
2018-10-09T05:50:39.321Z,25.03
2018-10-09T05:53:08.910Z,26.17
2018-10-09T05:55:38.192Z,29.00
2018-10-09T05:58:08.714Z,27.30
2018-10-09T06:00:37.999Z,27.62
2018-10-09T06:03:07.419Z,26.97
2018-10-09T06:05:36.604Z,27.03
2018-10-09T06:08:05.816Z,27.83
2018-10-09T06:10:35.248Z,27.07
2018-10-09T06:13:04.450Z,24.47
2018-10-09T06:15:33.682Z,25.32
2018-10-09T06:18:02.856Z,25.15
2018-10-09T06:20:32.255Z,24.90
2018-10-09T06:23:01.468Z,24.12
2018-10-09T06:25:30.703Z,21.43
2018-10-09T06:27:59.972Z,22.13
2018-10-09T06:30:29.179Z,22.33
2018-10-09T06:32:58.358Z,23.60
2018-10-09T06:35:27.598Z,22.70
2018-10-09T06:37:56.775Z,22.90
2018-10-09T06:40:26.122Z,22.40
2018-10-09T06:42:55.372Z,20.48
2018-10-09T06:45:24.825Z,22.40
2018-10-09T06:47:54.060Z,20.07
2018-10-09T06:50:23.627Z,22.40
2018-10-09T06:52:52.905Z,24.77
2018-10-09T06:55:22.123Z,21.27
2018-10-09T06:57:51.323Z,21.13
2018-10-09T07:00:20.607Z,20.57
2018-10-09T07:02:49.760Z,20.70
2018-10-09T07:05:18.998Z,20.67
2018-10-09T07:07:48.200Z,20.13
2018-10-09T07:10:17.461Z,21.10
2018-10-09T07:12:46.690Z,21.07
2018-10-09T07:15:15.916Z,21.57
2018-10-09T07:17:45.172Z,22.80
2018-10-09T07:20:14.865Z,24.43
2018-10-09T07:22:44.305Z,24.13
2018-10-09T07:25:13.881Z,22.17
2018-10-09T07:27:43.100Z,22.17
2018-10-09T07:30:12.818Z,23.70
2018-10-09T07:32:42.043Z,22.80
2018-10-09T07:35:12.454Z,23.70
2018-10-09T07:37:41.728Z,23.80
2018-10-09T07:40:11.308Z,24.87
2018-10-09T07:42:40.579Z,26.53
2018-10-09T07:45:10.436Z,26.67
2018-10-09T07:47:39.614Z,25.83
2018-10-09T07:50:09.192Z,27.90
2018-10-09T07:52:38.397Z,27.30
2018-10-09T07:55:07.992Z,25.63
2018-10-09T07:57:37.205Z,24.93
2018-10-09T08:00:06.519Z,21.93
2018-10-09T08:02:35.900Z,20.92
2018-10-09T08:05:05.162Z,20.43
2018-10-09T08:07:34.343Z,19.20
2018-10-09T08:10:03.560Z,20.37
2018-10-09T08:12:33.067Z,19.55
2018-10-09T08:15:02.304Z,17.60
2018-10-09T08:17:31.528Z,18.25
2018-10-09T08:20:00.708Z,18.67
2018-10-09T08:22:30.124Z,18.67
2018-10-09T08:24:59.259Z,19.50
2018-10-09T08:27:28.495Z,20.53
2018-10-09T08:29:58.047Z,20.03
2018-10-09T08:32:27.403Z,22.20
2018-10-09T08:34:56.667Z,19.77
2018-10-09T08:37:25.905Z,21.67
2018-10-09T08:39:55.145Z,22.95
2018-10-09T08:42:24.527Z,22.00
2018-10-09T08:44:53.758Z,21.47
2018-10-09T08:47:22.958Z,22.10
2018-10-09T08:49:52.157Z,21.12
2018-10-09T08:52:21.419Z,21.57
2018-10-09T08:54:50.620Z,24.93
2018-10-09T08:57:19.881Z,23.90
2018-10-09T08:59:49.076Z,22.27
2018-10-09T09:02:18.436Z,23.47
2018-10-09T09:04:47.639Z,22.97
2018-10-09T09:07:16.852Z,23.97
2018-10-09T09:09:46.260Z,22.10
2018-10-09T09:12:15.669Z,24.53
2018-10-09T09:14:44.951Z,22.60
2018-10-09T09:17:14.144Z,22.23
2018-10-09T09:19:43.360Z,21.50
2018-10-09T09:22:12.611Z,22.53
2018-10-09T09:24:41.857Z,23.23
2018-10-09T09:27:11.188Z,23.90
2018-10-09T09:29:40.340Z,23.18
2018-10-09T09:32:10.393Z,21.97
2018-10-09T09:34:39.662Z,27.27
2018-10-09T09:37:09.288Z,29.30
2018-10-09T09:39:38.496Z,31.40
2018-10-09T09:42:08.519Z,30.77
2018-10-09T09:44:37.724Z,29.07
2018-10-09T09:47:06.933Z,28.37
2018-10-09T09:49:36.165Z,27.40
2018-10-09T09:52:05.449Z,31.03
2018-10-09T09:54:34.639Z,28.25
2018-10-09T09:57:03.933Z,28.97
2018-10-09T09:59:33.246Z,29.13
2018-10-09T10:02:03.769Z,29.97
2018-10-09T10:04:34.149Z,27.52
2018-10-09T10:07:04.508Z,26.03
2018-10-09T10:09:34.736Z,30.60
2018-10-09T10:12:03.956Z,28.93
2018-10-09T10:14:33.220Z,30.07
2018-10-09T10:17:02.403Z,33.00
2018-10-09T10:19:31.647Z,30.80
2018-10-09T10:22:00.827Z,28.87
2018-10-09T10:24:30.051Z,29.40
2018-10-09T10:26:59.238Z,27.70
2018-10-09T10:29:28.440Z,32.10
2018-10-09T10:31:57.859Z,26.37
2018-10-09T10:34:27.076Z,25.90
2018-10-09T10:36:56.295Z,27.50
2018-10-09T10:39:25.543Z,25.87
2018-10-09T10:41:54.716Z,26.70
2018-10-09T10:44:23.949Z,24.63
2018-10-09T10:46:53.148Z,24.40
2018-10-09T10:49:22.377Z,24.50
2018-10-09T10:51:51.572Z,23.60
2018-10-09T10:54:20.775Z,24.40
2018-10-09T10:56:50.054Z,24.20
2018-10-09T10:59:19.160Z,23.63
2018-10-09T11:01:48.460Z,27.03
2018-10-09T11:04:17.539Z,29.93
2018-10-09T11:06:46.736Z,27.50
2018-10-09T11:09:15.951Z,30.30
2018-10-09T11:11:45.152Z,26.67
2018-10-09T11:14:14.379Z,26.33
2018-10-09T11:16:43.592Z,26.43
2018-10-09T11:19:12.805Z,26.62
2018-10-09T11:21:42.322Z,25.40
2018-10-09T11:24:11.478Z,25.40
2018-10-09T11:26:40.673Z,27.60
2018-10-09T11:29:10.198Z,28.37
2018-10-09T11:31:39.449Z,24.95
2018-10-09T11:34:09.064Z,27.53
2018-10-09T11:36:38.250Z,25.90
2018-10-09T11:39:08.497Z,24.40
2018-10-09T11:41:37.769Z,26.80
2018-10-09T11:44:07.448Z,22.83
2018-10-09T11:46:37.176Z,23.03
2018-10-09T11:49:07.017Z,25.17
2018-10-09T11:51:36.419Z,25.43
2018-10-09T11:54:05.632Z,25.50
2018-10-09T11:56:34.840Z,24.43
2018-10-09T11:59:04.123Z,26.20
2018-10-09T12:01:33.296Z,26.40
2018-10-09T12:04:02.497Z,24.10
2018-10-09T12:06:31.690Z,26.07
2018-10-09T12:09:00.867Z,26.13
2018-10-09T12:11:30.123Z,25.50
2018-10-09T12:13:59.348Z,25.33
2018-10-09T12:16:28.527Z,24.70
2018-10-09T12:18:57.693Z,26.17
2018-10-09T12:21:27.137Z,25.43
2018-10-09T12:23:56.327Z,26.87
2018-10-09T12:26:25.569Z,25.60
2018-10-09T12:28:54.725Z,25.23
2018-10-09T12:31:23.987Z,24.30
2018-10-09T12:33:53.152Z,25.30
2018-10-09T12:36:22.320Z,24.23
2018-10-09T12:38:51.485Z,25.25
2018-10-09T12:41:20.823Z,23.53
2018-10-09T12:43:50.146Z,24.80
2018-10-09T12:46:46.195Z,22.07
2018-10-09T12:49:15.347Z,25.33
2018-10-09T12:51:44.551Z,23.90
2018-10-09T12:54:13.700Z,24.40
2018-10-09T12:56:42.888Z,24.80
2018-10-09T12:59:12.095Z,24.50
2018-10-09T13:01:41.350Z,22.90
2018-10-09T13:04:10.910Z,23.37
2018-10-09T13:06:40.071Z,24.53
2018-10-09T13:09:11.764Z,24.90
2018-10-09T13:11:41.079Z,23.80
2018-10-09T13:14:10.847Z,24.50
2018-10-09T13:16:40.021Z,23.07
2018-10-09T13:19:09.557Z,24.90
2018-10-09T13:21:39.490Z,24.70
2018-10-09T13:24:08.748Z,23.63
2018-10-09T13:26:38.011Z,24.40
2018-10-09T13:29:08.568Z,23.33
2018-10-09T13:31:37.806Z,23.83
2018-10-09T13:34:07.383Z,24.17
2018-10-09T13:36:36.633Z,24.53
2018-10-09T13:39:07.326Z,25.00
2018-10-09T13:41:36.758Z,25.73
2018-10-09T13:44:06.234Z,24.23
2018-10-09T13:46:35.901Z,25.77
2018-10-09T13:49:05.319Z,23.85
2018-10-09T13:51:34.617Z,23.77
2018-10-09T13:54:03.871Z,23.40
2018-10-09T13:56:33.021Z,20.60
2018-10-09T13:59:02.220Z,20.93
2018-10-09T14:01:31.488Z,25.33
2018-10-09T14:04:00.685Z,22.27
2018-10-09T14:06:29.841Z,23.50
2018-10-09T14:08:59.006Z,22.03
2018-10-09T14:11:28.363Z,22.50
2018-10-09T14:13:57.559Z,21.60
2018-10-09T14:16:26.767Z,22.70
2018-10-09T14:18:55.884Z,21.97
2018-10-09T14:21:25.230Z,21.97
2018-10-09T14:23:54.562Z,22.70
2018-10-09T14:26:23.760Z,21.83
2018-10-09T14:28:52.945Z,21.20
2018-10-09T14:31:22.328Z,23.90
2018-10-09T14:33:51.536Z,22.40
2018-10-09T14:36:20.703Z,20.70
2018-10-09T14:38:49.925Z,20.77
2018-10-09T14:41:19.114Z,20.30
2018-10-09T14:43:48.327Z,19.98
2018-10-09T14:46:17.467Z,20.73
2018-10-09T14:48:46.619Z,21.43
2018-10-09T14:51:16.030Z,20.80
2018-10-09T14:53:45.205Z,19.87
2018-10-09T14:56:14.345Z,19.33
2018-10-09T14:58:43.712Z,19.27
2018-10-09T15:01:12.932Z,19.92
2018-10-09T15:03:42.136Z,20.43
2018-10-09T15:06:11.295Z,18.93
2018-10-09T15:08:40.516Z,20.23
2018-10-09T15:11:09.935Z,18.77
2018-10-09T15:13:39.157Z,16.00
2018-10-09T15:16:08.466Z,18.17
2018-10-09T15:18:37.634Z,20.57
2018-10-09T15:21:07.543Z,18.63
2018-10-09T15:23:36.752Z,19.67
2018-10-09T15:26:05.879Z,18.23
2018-10-09T15:28:35.056Z,17.90
2018-10-09T15:31:04.235Z,18.67
2018-10-09T15:33:33.721Z,17.67
2018-10-09T15:36:02.873Z,19.97
2018-10-09T15:38:32.063Z,18.92
2018-10-09T15:41:01.361Z,18.60
2018-10-09T15:43:30.509Z,18.87
2018-10-09T15:45:59.674Z,17.40
2018-10-09T15:48:28.835Z,19.80
2018-10-09T15:50:58.059Z,18.37
2018-10-09T15:53:27.287Z,18.42
2018-10-09T15:55:56.450Z,18.50
2018-10-09T15:58:26.004Z,17.92
2018-10-09T16:00:55.516Z,15.80
2018-10-09T16:03:24.739Z,18.23
2018-10-09T16:05:53.912Z,19.15
2018-10-09T16:08:23.551Z,16.63
2018-10-09T16:10:52.995Z,17.20
2018-10-09T16:13:22.160Z,16.20
2018-10-09T16:15:51.491Z,17.10
2018-10-09T16:18:20.742Z,18.10
2018-10-09T16:20:49.992Z,16.93
2018-10-09T16:23:19.131Z,18.83
2018-10-09T16:25:48.320Z,17.77
2018-10-09T16:28:17.558Z,16.87
2018-10-09T16:30:46.712Z,18.27
2018-10-09T16:33:15.921Z,18.10
2018-10-09T16:35:45.133Z,18.17
2018-10-09T16:38:14.308Z,18.90
2018-10-09T16:40:43.529Z,20.53
2018-10-09T16:43:12.715Z,18.03
2018-10-09T16:45:41.972Z,18.80
2018-10-09T16:48:11.541Z,17.47
2018-10-09T16:50:40.837Z,18.73
2018-10-09T16:53:10.604Z,19.43
2018-10-09T16:55:39.759Z,19.23
2018-10-09T16:58:09.474Z,19.20
2018-10-09T17:00:38.715Z,21.77
2018-10-09T17:03:08.257Z,18.87
2018-10-09T17:05:37.499Z,19.07
2018-10-09T17:08:07.665Z,20.30
2018-10-09T17:10:36.845Z,20.87
2018-10-09T17:13:06.207Z,21.83
2018-10-09T17:15:35.560Z,21.13
2018-10-09T17:18:04.715Z,27.93
2018-10-09T17:20:33.946Z,22.30
2018-10-09T17:23:03.114Z,22.50
2018-10-09T17:25:32.282Z,23.55
2018-10-09T17:28:01.483Z,21.60
2018-10-09T17:30:30.868Z,22.43
2018-10-09T17:33:00.084Z,23.50
2018-10-09T17:35:29.241Z,24.07
2018-10-09T17:37:58.401Z,23.10
2018-10-09T17:40:27.582Z,22.23
2018-10-09T17:42:56.727Z,22.87
2018-10-09T17:45:25.954Z,21.93
2018-10-09T17:47:55.109Z,22.27
2018-10-09T17:50:24.295Z,24.43
2018-10-09T17:52:53.444Z,24.60
2018-10-09T17:55:22.828Z,25.52
2018-10-09T17:57:51.989Z,26.57
2018-10-09T18:00:21.908Z,25.17
2018-10-09T18:02:51.087Z,25.60
2018-10-09T18:05:20.685Z,25.20
2018-10-09T18:07:49.908Z,27.83
2018-10-09T18:10:19.487Z,24.93
2018-10-09T18:12:48.659Z,24.60
2018-10-09T18:15:19.339Z,24.40
2018-10-09T18:17:48.559Z,26.57
2018-10-09T18:20:20.738Z,25.90
2018-10-09T18:22:49.929Z,22.87
2018-10-09T18:25:20.363Z,23.73
2018-10-09T18:27:49.566Z,22.60
2018-10-09T18:30:18.844Z,23.50
2018-10-09T18:32:48.206Z,22.82
2018-10-09T18:35:17.871Z,18.90
2018-10-09T18:37:47.034Z,19.40
2018-10-09T18:40:16.854Z,20.17
2018-10-09T18:42:46.001Z,20.50
2018-10-09T18:45:15.324Z,20.17
2018-10-09T18:47:45.219Z,20.30
2018-10-09T18:50:15.397Z,19.43
2018-10-09T18:52:44.566Z,19.73
2018-10-09T18:55:16.234Z,21.17
2018-10-09T18:57:45.836Z,20.20
2018-10-09T19:00:15.786Z,21.07
2018-10-09T19:02:44.959Z,20.13
2018-10-09T19:05:14.119Z,22.70
2018-10-09T19:07:43.267Z,19.57
2018-10-09T19:10:12.760Z,21.67
2018-10-09T19:12:41.932Z,20.37
2018-10-09T19:15:12.454Z,19.00
2018-10-09T19:17:41.647Z,20.50
2018-10-09T19:20:10.791Z,19.10
2018-10-09T19:22:39.967Z,20.80
2018-10-09T19:25:09.375Z,20.10
2018-10-09T19:27:38.568Z,19.17
2018-10-09T19:30:08.211Z,18.97
2018-10-09T19:32:37.503Z,21.03
2018-10-09T19:35:06.651Z,19.23
2018-10-09T19:37:35.845Z,19.87
2018-10-09T19:40:05.402Z,20.27
2018-10-09T19:42:34.607Z,18.97
2018-10-09T19:45:03.825Z,19.25
2018-10-09T19:47:36.831Z,19.50
2018-10-09T19:50:06.995Z,18.75
2018-10-09T19:52:36.602Z,20.17
2018-10-09T19:55:06.205Z,21.07
2018-10-09T19:57:35.384Z,21.77
2018-10-09T20:00:05.009Z,21.12
2018-10-09T20:02:34.243Z,27.10
2018-10-09T20:05:03.585Z,25.73
2018-10-09T20:07:32.809Z,24.20
2018-10-09T20:10:01.912Z,24.23
2018-10-09T20:12:31.123Z,23.87
2018-10-09T20:15:00.356Z,25.00
2018-10-09T20:17:29.636Z,22.63
2018-10-09T20:20:01.694Z,23.60
2018-10-09T20:22:30.902Z,22.90
2018-10-09T20:25:00.191Z,24.43
2018-10-09T20:27:29.388Z,25.87
2018-10-09T20:29:58.583Z,23.90
2018-10-09T20:32:27.818Z,23.30
2018-10-09T20:34:56.976Z,25.07
2018-10-09T20:37:26.179Z,24.65
2018-10-09T20:39:55.409Z,24.97
2018-10-09T20:42:24.601Z,24.43
2018-10-09T20:44:53.799Z,23.80
2018-10-09T20:47:28.342Z,23.90
2018-10-09T20:49:57.613Z,27.77
2018-10-09T20:52:26.811Z,26.07
2018-10-09T20:54:55.962Z,27.33
2018-10-09T20:57:25.176Z,27.47
2018-10-09T20:59:54.412Z,27.50
2018-10-09T21:02:23.610Z,26.60
2018-10-09T21:04:55.623Z,31.23
2018-10-09T21:07:24.967Z,28.63
2018-10-09T21:09:54.267Z,29.10
2018-10-09T21:12:23.432Z,29.37
2018-10-09T21:14:52.710Z,27.20
2018-10-09T21:17:22.066Z,28.23
2018-10-09T21:19:51.442Z,26.47
2018-10-09T21:22:20.730Z,28.20
2018-10-09T21:24:49.922Z,26.10
2018-10-09T21:27:19.233Z,28.40
2018-10-09T21:29:48.500Z,26.47
2018-10-09T21:32:18.185Z,26.62
2018-10-09T21:34:47.512Z,26.17
2018-10-09T21:37:16.931Z,24.63
2018-10-09T21:39:46.238Z,42.47
2018-10-09T21:42:16.070Z,34.00
2018-10-09T21:44:45.299Z,29.83
2018-10-09T21:47:15.084Z,24.47
2018-10-09T21:49:44.395Z,27.00
2018-10-09T21:52:13.552Z,27.67
2018-10-09T21:54:42.716Z,29.07
2018-10-09T21:57:12.012Z,29.93
2018-10-09T21:59:41.175Z,29.12
2018-10-09T22:02:10.372Z,28.57
2018-10-09T22:04:39.568Z,27.30
2018-10-09T22:07:08.768Z,27.40
2018-10-09T22:09:37.947Z,25.77
2018-10-09T22:12:07.067Z,27.13
2018-10-09T22:14:36.250Z,26.40
2018-10-09T22:17:05.636Z,26.77
2018-10-09T22:19:34.858Z,27.40
2018-10-09T22:22:04.020Z,30.30
2018-10-09T22:24:33.263Z,28.50
2018-10-09T22:27:02.347Z,28.50
2018-10-09T22:29:31.553Z,27.87
2018-10-09T22:32:00.760Z,30.37
2018-10-09T22:34:29.948Z,30.60
2018-10-09T22:36:59.170Z,27.90
2018-10-09T22:39:28.362Z,27.60
2018-10-09T22:41:57.542Z,27.60
2018-10-09T22:44:26.710Z,29.70
2018-10-09T22:46:55.944Z,26.30
2018-10-09T22:49:25.161Z,29.57
2018-10-09T22:51:54.467Z,27.80
2018-10-09T22:54:23.621Z,29.50
2018-10-09T22:56:53.105Z,28.13
2018-10-09T22:59:22.318Z,27.77
2018-10-09T23:01:51.532Z,29.20
2018-10-09T23:04:20.694Z,28.80
2018-10-09T23:06:49.887Z,28.98
2018-10-09T23:09:19.050Z,32.47
2018-10-09T23:11:48.239Z,33.00
2018-10-09T23:14:17.676Z,31.73
2018-10-09T23:16:46.893Z,30.10
2018-10-09T23:19:16.760Z,31.50
2018-10-09T23:21:45.932Z,32.35
2018-10-09T23:24:15.800Z,32.27
2018-10-09T23:26:44.995Z,30.87
2018-10-09T23:29:14.843Z,30.17
2018-10-09T23:31:44.070Z,32.05
2018-10-09T23:34:13.238Z,32.90
2018-10-09T23:36:43.492Z,32.60
2018-10-09T23:39:12.711Z,32.27
2018-10-09T23:41:41.893Z,32.90
2018-10-09T23:44:12.079Z,32.00
2018-10-09T23:46:41.381Z,35.13
2018-10-09T23:49:10.592Z,32.40
2018-10-09T23:51:39.789Z,34.00
2018-10-09T23:54:08.968Z,35.48
2018-10-09T23:56:38.151Z,35.53
2018-10-09T23:59:07.640Z,36.13
